Seven Oaks, Texas
Current Conditions -  °F | °C
As of 9:53 PM on Thursday 20 Nov 2014 (Local Time) from KLFK Reporting Station
Overcast Overcast  
Wind Chill: 63°   Ceiling: 5500
Heat Index: 63°   Visibility: 10mi
Dew Point: 54°   Wind: 8mph
Humidity: 72%   Direction: 140°SE
Pressure: 30.13"   Gusts: NA
Location:  30.8176°N, 94.8703°W
Report Text: KLFK 210353Z AUTO 14007KT 10SM OVC055 17/12 A3013 RMK AO2 SLP202 T01720122
Loading
Personal Weather Stations






























Interactive Weather Map New forecast layout! Learn more

10-Day Weather Forecast

Advertisements
Track Severe Weather on mobile